DAL8718 CYKF-ZZZZ
Flight info
| Callsign | DAL8718 |
|---|---|
| Flight time | N/A |
| Altitude | 3000 |
| Route | |
| Aircraft | C25C |
Departure
| Time | 2026-05-07 01:46 |
|---|---|
| Airport | Region of Waterloo International Airport (CYKF) |
Arrival
| Time | N/A |
|---|---|
| Airport | ZZZZ |
| Time | Latitude | Longitude | Altitude | Speed | Heading |
|---|---|---|---|---|---|
| 2026-05-07 01:41 | 43.45548 | -80.38328 | 1029 ft | 0 kts | 36° |
| 2026-05-07 01:43 | 43.45559 | -80.38266 | 1029 ft | 13 kts | 124° |
| 2026-05-07 01:43 | 43.45492 | -80.38139 | 1029 ft | 20 kts | 96° |
| 2026-05-07 01:44 | 43.45535 | -80.38140 | 1029 ft | 16 kts | 309° |
| 2026-05-07 01:44 | 43.45592 | -80.38282 | 1029 ft | 2 kts | 218° |
| 2026-05-07 01:44 | 43.45545 | -80.38243 | 1029 ft | 16 kts | 130° |
| 2026-05-07 01:44 | 43.45493 | -80.38088 | 1029 ft | 18 kts | 86° |
| 2026-05-07 01:45 | 43.45559 | -80.37981 | 1028 ft | 14 kts | 8° |
| 2026-05-07 01:45 | 43.45599 | -80.38023 | 1028 ft | 0 kts | 290° |
| 2026-05-07 01:45 | 43.45619 | -80.38067 | 1028 ft | 13 kts | 307° |
| 2026-05-07 01:45 | 43.45720 | -80.38242 | 1028 ft | 50 kts | 309° |
| 2026-05-07 01:46 | 43.46186 | -80.39052 | 1060 ft | 160 kts | 308° |
| 2026-05-07 01:46 | 43.47059 | -80.40399 | 1535 ft | 216 kts | 321° |
| 2026-05-07 01:46 | 43.48462 | -80.41604 | 2277 ft | 251 kts | 335° |
| 2026-05-07 01:46 | 43.50219 | -80.42152 | 3266 ft | 264 kts | 355° |
| 2026-05-07 01:47 | 43.52008 | -80.42547 | 4559 ft | 268 kts | 350° |
| 2026-05-07 01:47 | 43.53788 | -80.41772 | 5269 ft | 288 kts | 41° |
| 2026-05-07 01:47 | 43.55153 | -80.39738 | 6022 ft | 297 kts | 48° |
| 2026-05-07 01:47 | 43.56592 | -80.37891 | 7554 ft | 274 kts | 37° |
| 2026-05-07 01:48 | 43.58186 | -80.36548 | 8966 ft | 265 kts | 26° |
| 2026-05-07 01:48 | 43.59897 | -80.35686 | 10300 ft | 260 kts | 14° |